Terminal Aerodrome Forecast
Issued by NWS Binghamton, NY

Home | Current Version | Previous Version | Text Only | Print | Product List | Glossary On
Versions: 1 2 3 4 5 6 7 8 9 10 11 12 13 14 15 16 17 18 19 20 21 22 23 24
148
FTUS41 KBGM 111738
TAFSYR
TAF
KSYR 111738Z 1118/1218 28018G26KT 2SM -SN BLSN OVC025
      TEMPO 1118/1122 1/2SM SN BLSN OVC015
     FM120000 28015KT 4SM -SHSN BKN040
      TEMPO 1200/1204 1 1/2SM -SN OVC020
     FM120800 23012KT P6SM SCT050 BKN250=

USA.gov is the U.S. government's official web portal to all federal, state and local government web resources and services.